createdAt,value
2023-05-19T00:01:19.075Z,9.84
2023-05-19T00:03:53.651Z,9.85
2023-05-19T00:06:31.592Z,9.84
2023-05-19T00:09:05.786Z,9.80
2023-05-19T00:11:32.532Z,9.77
2023-05-19T00:14:00.062Z,9.77
2023-05-19T00:16:28.571Z,9.76
2023-05-19T00:18:57.057Z,9.69
2023-05-19T00:21:23.828Z,9.68
2023-05-19T00:23:50.537Z,9.63
2023-05-19T00:26:17.193Z,9.59
2023-05-19T00:28:43.660Z,9.56
2023-05-19T00:31:10.281Z,9.52
2023-05-19T00:33:36.840Z,9.51
2023-05-19T00:36:04.228Z,9.50
2023-05-19T00:38:31.709Z,9.45
2023-05-19T00:40:58.854Z,9.45
2023-05-19T00:43:26.025Z,9.42
2023-05-19T00:45:52.638Z,9.43
2023-05-19T00:48:19.249Z,9.34
2023-05-19T00:50:46.106Z,9.31
2023-05-19T00:53:14.723Z,9.32
2023-05-19T00:55:42.697Z,9.35
2023-05-19T00:58:11.736Z,9.33
2023-05-19T01:00:39.531Z,9.26
2023-05-19T01:03:12.942Z,9.23
2023-05-19T01:05:41.763Z,9.23
2023-05-19T01:08:08.913Z,9.20
2023-05-19T01:10:35.463Z,9.20
2023-05-19T01:13:04.405Z,9.20
2023-05-19T01:15:59.224Z,9.21
2023-05-19T01:18:56.910Z,9.24
2023-05-19T01:21:36.499Z,9.22
2023-05-19T01:24:28.087Z,9.16
2023-05-19T01:27:15.862Z,9.09
2023-05-19T01:29:59.346Z,9.05
2023-05-19T01:32:26.732Z,9.02
2023-05-19T01:34:55.512Z,9.02
2023-05-19T01:37:23.415Z,8.96
2023-05-19T01:39:50.560Z,8.94
2023-05-19T01:42:17.885Z,8.96
2023-05-19T01:44:44.550Z,8.87
2023-05-19T01:47:11.448Z,8.85
2023-05-19T01:49:37.936Z,8.82
2023-05-19T01:52:04.632Z,8.81
2023-05-19T01:54:31.159Z,8.81
2023-05-19T01:57:04.242Z,8.83
2023-05-19T01:59:36.489Z,8.86
2023-05-19T02:02:11.700Z,8.83
2023-05-19T02:04:46.585Z,8.78
2023-05-19T02:07:17.613Z,8.77
2023-05-19T02:09:56.106Z,8.77
2023-05-19T02:12:28.706Z,8.72
2023-05-19T02:15:04.315Z,8.65
2023-05-19T02:17:33.334Z,8.61
2023-05-19T02:19:59.934Z,8.61
2023-05-19T02:22:26.405Z,8.60
2023-05-19T02:24:52.893Z,8.56
2023-05-19T02:27:19.430Z,8.51
2023-05-19T02:29:46.005Z,8.54
2023-05-19T02:32:12.581Z,8.54
2023-05-19T02:34:39.198Z,8.53
2023-05-19T02:37:07.642Z,8.54
2023-05-19T02:39:35.255Z,8.53
2023-05-19T02:42:01.796Z,8.51
2023-05-19T02:44:28.298Z,8.52
2023-05-19T02:46:54.871Z,8.51
2023-05-19T02:49:21.433Z,8.46
2023-05-19T02:51:47.914Z,8.44
2023-05-19T02:54:14.370Z,8.43
2023-05-19T02:56:40.863Z,8.44
2023-05-19T02:59:07.346Z,8.43
2023-05-19T03:01:34.050Z,8.37
2023-05-19T03:04:00.725Z,8.33
2023-05-19T03:06:27.401Z,8.33
2023-05-19T03:08:53.866Z,8.35
2023-05-19T03:11:20.723Z,8.31
2023-05-19T03:13:47.220Z,8.28
2023-05-19T03:16:14.038Z,8.23
2023-05-19T03:18:41.774Z,8.22
2023-05-19T03:21:08.295Z,8.19
2023-05-19T03:23:34.804Z,8.15
2023-05-19T03:26:01.315Z,8.16
2023-05-19T03:28:27.795Z,8.16
2023-05-19T03:30:54.328Z,8.12
2023-05-19T03:33:21.096Z,8.11
2023-05-19T03:35:47.632Z,8.10
2023-05-19T03:38:14.130Z,8.11
2023-05-19T03:40:41.426Z,8.11
2023-05-19T03:43:07.971Z,8.11
2023-05-19T03:45:34.510Z,8.11
2023-05-19T03:48:01.172Z,8.11
2023-05-19T03:50:29.134Z,8.05
2023-05-19T03:52:55.692Z,8.05
2023-05-19T03:55:22.181Z,8.06
2023-05-19T03:57:48.865Z,8.00
2023-05-19T04:00:16.620Z,7.96
2023-05-19T04:02:43.179Z,7.95
2023-05-19T04:05:10.609Z,7.94
2023-05-19T04:07:37.137Z,7.94
2023-05-19T04:10:05.469Z,7.97
2023-05-19T04:12:32.101Z,7.94
2023-05-19T04:14:58.847Z,7.94
2023-05-19T04:17:26.480Z,7.97
2023-05-19T04:19:54.129Z,8.00
2023-05-19T04:22:20.917Z,8.03
2023-05-19T04:24:48.588Z,8.09
2023-05-19T04:27:16.083Z,8.07
2023-05-19T04:29:42.562Z,8.11
2023-05-19T04:32:09.261Z,8.16
2023-05-19T04:34:35.785Z,8.23
2023-05-19T04:37:02.726Z,8.24
2023-05-19T04:39:29.264Z,8.26
2023-05-19T04:41:56.621Z,8.27
2023-05-19T04:44:23.179Z,8.25
2023-05-19T04:46:50.139Z,8.27
2023-05-19T04:49:19.131Z,8.31
2023-05-19T04:51:46.144Z,8.40
2023-05-19T04:54:12.572Z,8.46
2023-05-19T04:56:39.079Z,8.54
2023-05-19T04:59:05.572Z,8.61
2023-05-19T05:01:33.688Z,8.68
2023-05-19T05:04:02.431Z,8.75
2023-05-19T05:06:29.089Z,8.81
2023-05-19T05:08:56.756Z,8.88
2023-05-19T05:11:23.425Z,8.92
2023-05-19T05:13:50.161Z,9.02
2023-05-19T05:16:17.040Z,9.12
2023-05-19T05:18:44.857Z,9.21
2023-05-19T05:21:12.192Z,9.30
2023-05-19T05:23:38.933Z,9.36
2023-05-19T05:26:11.113Z,9.46
2023-05-19T05:28:37.551Z,9.55
2023-05-19T05:31:04.132Z,9.64
2023-05-19T05:33:30.798Z,9.68
2023-05-19T05:35:57.338Z,9.70
2023-05-19T05:38:24.129Z,9.67
2023-05-19T05:40:50.616Z,9.68
2023-05-19T05:43:17.108Z,9.78
2023-05-19T05:45:43.675Z,9.94
2023-05-19T05:48:11.046Z,10.07
2023-05-19T05:50:37.913Z,10.15
2023-05-19T05:53:06.720Z,10.24
2023-05-19T05:55:33.896Z,10.29
2023-05-19T05:58:02.113Z,10.45
2023-05-19T06:00:29.801Z,10.55
2023-05-19T06:02:57.158Z,10.60
2023-05-19T06:05:25.077Z,10.59
2023-05-19T06:07:51.535Z,10.70
2023-05-19T06:10:17.966Z,10.88
2023-05-19T06:12:44.493Z,11.07
2023-05-19T06:15:11.140Z,11.25
2023-05-19T06:17:37.748Z,11.40
2023-05-19T06:20:06.005Z,11.48
2023-05-19T06:22:32.749Z,11.56
2023-05-19T06:24:59.381Z,11.58
2023-05-19T06:27:25.904Z,11.67
2023-05-19T06:29:52.833Z,11.79
2023-05-19T06:32:19.323Z,12.03
2023-05-19T06:34:46.164Z,12.19
2023-05-19T06:37:14.799Z,12.32
2023-05-19T06:39:41.266Z,12.41
2023-05-19T06:42:07.716Z,12.52
2023-05-19T06:44:34.192Z,12.65
2023-05-19T06:47:00.680Z,12.75
2023-05-19T06:49:29.326Z,12.88
2023-05-19T06:51:55.832Z,12.95
2023-05-19T06:54:22.396Z,13.11
2023-05-19T06:56:49.100Z,13.23
2023-05-19T06:59:16.179Z,13.25
2023-05-19T07:01:42.717Z,13.26
2023-05-19T07:04:09.240Z,13.31
2023-05-19T07:06:35.735Z,13.35
2023-05-19T07:09:04.352Z,13.51
2023-05-19T07:11:31.225Z,13.55
2023-05-19T07:13:57.694Z,13.64
2023-05-19T07:16:24.214Z,13.69
2023-05-19T07:18:50.951Z,13.70
2023-05-19T07:21:17.492Z,13.63
2023-05-19T07:23:43.980Z,13.68
2023-05-19T07:26:10.483Z,13.83
2023-05-19T07:28:39.851Z,13.99
2023-05-19T07:31:08.003Z,14.10
2023-05-19T07:33:34.453Z,14.14
2023-05-19T07:36:01.188Z,14.21
2023-05-19T07:38:28.789Z,14.30
2023-05-19T07:40:55.398Z,14.42
2023-05-19T07:43:21.920Z,14.47
2023-05-19T07:45:48.466Z,14.39
2023-05-19T07:48:15.077Z,14.32
2023-05-19T07:50:41.713Z,14.38
2023-05-19T07:53:08.246Z,14.60
2023-05-19T07:55:34.765Z,14.62
2023-05-19T07:58:01.261Z,14.66
2023-05-19T08:00:28.295Z,14.88
2023-05-19T08:02:56.927Z,14.94
2023-05-19T08:05:25.550Z,14.98
2023-05-19T08:07:52.075Z,15.10
2023-05-19T08:10:18.763Z,15.28
2023-05-19T08:12:45.712Z,15.67
2023-05-19T08:15:12.272Z,15.85
2023-05-19T08:17:39.017Z,15.90
2023-05-19T08:20:08.535Z,16.04
2023-05-19T08:22:35.109Z,16.25
2023-05-19T08:25:01.619Z,16.33
2023-05-19T08:27:28.130Z,16.40
2023-05-19T08:29:55.347Z,16.59
2023-05-19T08:32:21.922Z,16.62
2023-05-19T08:34:48.602Z,16.62
2023-05-19T08:37:15.206Z,16.64
2023-05-19T08:39:41.893Z,16.62
2023-05-19T08:42:09.890Z,16.67
2023-05-19T08:44:40.154Z,16.77
2023-05-19T08:47:12.699Z,16.86
2023-05-19T08:49:50.488Z,17.09
2023-05-19T08:52:35.804Z,17.20
2023-05-19T08:55:09.546Z,17.19
2023-05-19T08:57:36.813Z,17.22
2023-05-19T09:00:09.515Z,17.47
2023-05-19T09:02:46.565Z,17.59
2023-05-19T09:05:23.153Z,17.46
2023-05-19T09:07:49.712Z,17.32
2023-05-19T09:10:16.476Z,17.10
2023-05-19T09:12:48.800Z,16.96
2023-05-19T09:15:19.152Z,16.97
2023-05-19T09:17:48.803Z,16.94
2023-05-19T09:20:16.945Z,17.22
2023-05-19T09:22:47.575Z,17.37
2023-05-19T09:25:23.248Z,17.64
2023-05-19T09:27:50.550Z,17.75
2023-05-19T09:30:18.097Z,17.89
2023-05-19T09:32:45.654Z,17.98
2023-05-19T09:35:13.419Z,18.00
2023-05-19T09:37:41.166Z,18.04
2023-05-19T09:40:11.231Z,18.14
2023-05-19T09:42:40.570Z,18.14
2023-05-19T09:45:08.331Z,18.14
2023-05-19T09:47:37.410Z,18.30
2023-05-19T09:50:09.171Z,18.27
2023-05-19T09:52:37.125Z,18.01
2023-05-19T09:55:05.652Z,17.85
2023-05-19T09:57:40.064Z,17.83
2023-05-19T10:00:11.821Z,17.78
2023-05-19T10:02:42.761Z,17.72
2023-05-19T10:05:12.854Z,17.79
2023-05-19T10:07:40.786Z,17.97
2023-05-19T10:10:09.872Z,18.14
2023-05-19T10:12:39.177Z,18.16
2023-05-19T10:15:13.623Z,18.28
2023-05-19T10:17:41.631Z,18.38
2023-05-19T10:20:12.763Z,18.43
2023-05-19T10:22:39.956Z,18.57
2023-05-19T10:25:07.750Z,18.67
2023-05-19T10:27:37.469Z,18.67
2023-05-19T10:30:20.612Z,18.68
2023-05-19T10:32:51.937Z,18.93
2023-05-19T10:35:47.327Z,19.29
2023-05-19T10:38:44.738Z,19.31
2023-05-19T10:41:22.603Z,19.46
2023-05-19T10:43:49.028Z,19.52
2023-05-19T10:46:15.879Z,19.52
2023-05-19T10:48:46.566Z,19.62
2023-05-19T10:51:15.290Z,19.43
2023-05-19T10:53:46.291Z,19.32
2023-05-19T10:56:33.901Z,19.50
2023-05-19T10:59:01.504Z,19.54
2023-05-19T11:01:35.634Z,19.53
2023-05-19T11:04:07.231Z,19.50
2023-05-19T11:06:38.496Z,19.36
2023-05-19T11:09:16.621Z,19.69
2023-05-19T11:11:51.060Z,19.87
2023-05-19T11:14:27.448Z,19.90
2023-05-19T11:16:58.201Z,19.94
2023-05-19T11:19:32.585Z,20.03
2023-05-19T11:22:14.193Z,20.07
2023-05-19T11:24:50.211Z,20.10
2023-05-19T11:27:31.550Z,20.11
2023-05-19T11:30:06.186Z,20.22
2023-05-19T11:32:35.756Z,20.21
2023-05-19T11:35:02.763Z,20.22
2023-05-19T11:37:32.318Z,20.32
2023-05-19T11:40:01.966Z,20.30
2023-05-19T11:42:28.514Z,20.30
2023-05-19T11:44:56.134Z,20.34
2023-05-19T11:47:22.781Z,20.33
2023-05-19T11:49:57.858Z,20.29
2023-05-19T11:52:25.949Z,20.55
2023-05-19T11:54:52.524Z,20.71
2023-05-19T11:57:19.604Z,20.54
2023-05-19T11:59:48.074Z,20.33
2023-05-19T12:02:21.598Z,20.33
2023-05-19T12:04:51.760Z,20.25
2023-05-19T12:07:20.343Z,20.15
2023-05-19T12:09:47.469Z,20.10
2023-05-19T12:12:19.891Z,20.15
2023-05-19T12:14:47.593Z,20.21
2023-05-19T12:17:16.475Z,20.26
2023-05-19T12:19:44.496Z,20.27
2023-05-19T12:22:11.671Z,20.05
2023-05-19T12:24:39.004Z,19.98
2023-05-19T12:27:19.438Z,19.95
2023-05-19T12:29:57.115Z,19.75
2023-05-19T12:32:28.675Z,19.66
2023-05-19T12:34:58.683Z,19.50
2023-05-19T12:37:30.083Z,19.35
2023-05-19T12:39:57.593Z,19.29
2023-05-19T12:42:30.906Z,19.28
2023-05-19T12:45:00.686Z,19.43
2023-05-19T12:47:33.379Z,19.62
2023-05-19T12:49:59.809Z,19.63
2023-05-19T12:52:28.970Z,19.65
2023-05-19T12:55:07.205Z,19.72
2023-05-19T12:57:41.653Z,19.80
2023-05-19T13:00:10.575Z,19.76
2023-05-19T13:02:55.819Z,20.00
2023-05-19T13:05:23.073Z,19.93
2023-05-19T13:07:54.928Z,19.92
2023-05-19T13:10:21.481Z,19.93
2023-05-19T13:12:47.972Z,19.84
2023-05-19T13:15:14.956Z,19.84
2023-05-19T13:17:41.485Z,19.81
2023-05-19T13:20:08.932Z,19.77
2023-05-19T13:22:35.472Z,19.66
2023-05-19T13:25:02.285Z,19.60
2023-05-19T13:27:28.833Z,19.54
2023-05-19T13:29:55.420Z,19.55
2023-05-19T13:32:22.099Z,19.45
2023-05-19T13:34:48.955Z,19.33
2023-05-19T13:37:15.652Z,19.31
2023-05-19T13:39:42.238Z,19.39
2023-05-19T13:42:08.748Z,19.47
2023-05-19T13:44:35.287Z,19.52
2023-05-19T13:47:01.792Z,19.61
2023-05-19T13:49:28.245Z,19.64
2023-05-19T13:52:01.125Z,19.75
2023-05-19T13:54:27.684Z,19.78
2023-05-19T13:56:54.171Z,19.92
2023-05-19T13:59:23.539Z,20.03
2023-05-19T14:01:50.427Z,19.99
2023-05-19T14:04:18.197Z,19.66
2023-05-19T14:06:45.689Z,19.49
2023-05-19T14:09:13.164Z,19.46
2023-05-19T14:11:39.724Z,19.30
2023-05-19T14:14:06.473Z,19.27
2023-05-19T14:16:33.462Z,19.17
2023-05-19T14:19:00.090Z,19.17
2023-05-19T14:21:26.910Z,19.23
2023-05-19T14:23:53.387Z,19.32
2023-05-19T14:26:19.890Z,19.52
2023-05-19T14:28:46.367Z,19.64
2023-05-19T14:31:13.803Z,19.68
2023-05-19T14:33:41.417Z,19.68
2023-05-19T14:36:09.219Z,19.60
2023-05-19T14:38:36.231Z,19.38
2023-05-19T14:41:03.497Z,19.39
2023-05-19T14:43:29.961Z,19.46
2023-05-19T14:45:57.059Z,19.55
2023-05-19T14:48:23.551Z,19.64
2023-05-19T14:50:50.295Z,19.57
2023-05-19T14:53:16.897Z,19.58
2023-05-19T14:55:43.722Z,19.56
2023-05-19T14:58:19.726Z,19.54
2023-05-19T15:00:53.884Z,19.45
2023-05-19T15:03:20.538Z,19.59
2023-05-19T15:05:47.197Z,19.73
2023-05-19T15:08:13.726Z,19.77
2023-05-19T15:10:40.293Z,19.65
2023-05-19T15:13:06.938Z,19.51
2023-05-19T15:15:33.354Z,19.51
2023-05-19T15:17:59.884Z,19.56
2023-05-19T15:20:28.833Z,19.51
2023-05-19T15:22:56.049Z,19.44
2023-05-19T15:25:22.516Z,19.48
2023-05-19T15:27:48.994Z,19.51
2023-05-19T15:30:15.435Z,19.47
2023-05-19T15:32:41.910Z,19.52
2023-05-19T15:35:08.807Z,19.58
2023-05-19T15:37:35.349Z,19.44
2023-05-19T15:40:01.833Z,19.39
2023-05-19T15:42:28.399Z,19.47
2023-05-19T15:44:54.866Z,19.57
2023-05-19T15:47:21.306Z,19.49
2023-05-19T15:49:47.796Z,19.55
2023-05-19T15:52:14.382Z,19.58
2023-05-19T15:54:40.884Z,19.63
2023-05-19T15:57:07.480Z,19.66
2023-05-19T15:59:33.951Z,19.71
2023-05-19T16:02:00.491Z,19.75
2023-05-19T16:04:26.984Z,19.69
2023-05-19T16:06:53.494Z,19.53
2023-05-19T16:09:20.044Z,19.32
2023-05-19T16:11:46.507Z,19.17
2023-05-19T16:14:12.975Z,19.05
2023-05-19T16:16:39.566Z,19.05
2023-05-19T16:19:06.229Z,19.11
2023-05-19T16:21:32.809Z,19.17
2023-05-19T16:23:59.290Z,19.18
2023-05-19T16:26:26.414Z,19.25
2023-05-19T16:28:52.851Z,19.28
2023-05-19T16:31:19.857Z,19.27
2023-05-19T16:33:46.473Z,19.27
2023-05-19T16:36:12.910Z,19.26
2023-05-19T16:38:39.455Z,19.26
2023-05-19T16:41:06.931Z,19.22
2023-05-19T16:43:33.900Z,19.19
2023-05-19T16:46:03.374Z,19.16
2023-05-19T16:48:30.011Z,19.02
2023-05-19T16:50:56.599Z,18.90
2023-05-19T16:53:23.072Z,18.88
2023-05-19T16:55:49.630Z,18.90
2023-05-19T16:58:16.059Z,18.95
2023-05-19T17:00:42.608Z,18.99
2023-05-19T17:03:09.155Z,18.99
2023-05-19T17:05:37.068Z,19.03
2023-05-19T17:08:03.719Z,19.05
2023-05-19T17:10:30.247Z,18.98
2023-05-19T17:12:56.682Z,18.79
2023-05-19T17:15:23.149Z,18.73
2023-05-19T17:17:49.880Z,18.62
2023-05-19T17:20:16.776Z,18.56
2023-05-19T17:22:43.280Z,18.49
2023-05-19T17:25:10.083Z,18.51
2023-05-19T17:27:36.700Z,18.62
2023-05-19T17:30:03.556Z,18.76
2023-05-19T17:32:35.749Z,18.77
2023-05-19T17:35:03.358Z,18.80
2023-05-19T17:37:29.887Z,18.80
2023-05-19T17:39:56.390Z,18.81
2023-05-19T17:42:22.879Z,18.75
2023-05-19T17:44:49.450Z,18.62
2023-05-19T17:47:15.941Z,18.54
2023-05-19T17:49:42.384Z,18.44
2023-05-19T17:52:09.534Z,18.41
2023-05-19T17:54:36.358Z,18.45
2023-05-19T17:57:07.161Z,18.48
2023-05-19T17:59:34.012Z,18.42
2023-05-19T18:02:00.848Z,18.37
2023-05-19T18:04:27.675Z,18.30
2023-05-19T18:06:56.451Z,18.23
2023-05-19T18:09:28.505Z,18.13
2023-05-19T18:11:55.509Z,18.04
2023-05-19T18:14:22.055Z,17.95
2023-05-19T18:16:49.983Z,17.84
2023-05-19T18:19:16.647Z,17.77
2023-05-19T18:21:43.163Z,17.73
2023-05-19T18:24:09.671Z,17.70
2023-05-19T18:26:38.162Z,17.68
2023-05-19T18:29:04.973Z,17.59
2023-05-19T18:31:31.689Z,17.56
2023-05-19T18:33:58.207Z,17.47
2023-05-19T18:36:24.711Z,17.43
2023-05-19T18:38:51.241Z,17.37
2023-05-19T18:41:17.794Z,17.33
2023-05-19T18:43:44.297Z,17.31
2023-05-19T18:46:11.207Z,17.26
2023-05-19T18:48:37.700Z,17.19
2023-05-19T18:51:04.846Z,17.14
2023-05-19T18:53:34.636Z,17.10
2023-05-19T18:56:01.384Z,17.06
2023-05-19T18:58:27.864Z,17.00
2023-05-19T19:00:55.317Z,16.96
2023-05-19T19:03:21.778Z,16.88
2023-05-19T19:05:56.067Z,16.87
2023-05-19T19:08:22.896Z,16.77
2023-05-19T19:10:54.676Z,16.73
2023-05-19T19:13:22.452Z,16.71
2023-05-19T19:15:48.887Z,16.64
2023-05-19T19:18:15.684Z,16.59
2023-05-19T19:20:42.170Z,16.51
2023-05-19T19:23:08.597Z,16.47
2023-05-19T19:25:35.378Z,16.45
2023-05-19T19:28:02.343Z,16.39
2023-05-19T19:30:29.394Z,16.36
2023-05-19T19:32:56.999Z,16.31
2023-05-19T19:35:23.563Z,16.29
2023-05-19T19:37:51.692Z,16.26
2023-05-19T19:40:18.189Z,16.25
2023-05-19T19:42:44.685Z,16.17
2023-05-19T19:45:13.968Z,16.12
2023-05-19T19:47:42.013Z,16.06
2023-05-19T19:50:09.203Z,16.01
2023-05-19T19:52:35.681Z,15.97
2023-05-19T19:55:02.196Z,15.94
2023-05-19T19:57:30.039Z,15.91
2023-05-19T19:59:59.049Z,15.84
2023-05-19T20:02:25.907Z,15.80
2023-05-19T20:04:52.467Z,15.74
2023-05-19T20:07:20.718Z,15.72
2023-05-19T20:09:48.252Z,15.68
2023-05-19T20:12:14.746Z,15.66
2023-05-19T20:14:41.284Z,15.63
2023-05-19T20:17:07.745Z,15.58
2023-05-19T20:19:34.294Z,15.55
2023-05-19T20:22:00.912Z,15.54
2023-05-19T20:24:27.339Z,15.46
2023-05-19T20:26:53.752Z,15.42
2023-05-19T20:29:21.216Z,15.35
2023-05-19T20:31:47.709Z,15.29
2023-05-19T20:34:14.214Z,15.26
2023-05-19T20:36:40.980Z,15.25
2023-05-19T20:39:09.635Z,15.21
2023-05-19T20:41:36.277Z,15.13
2023-05-19T20:44:02.980Z,15.10
2023-05-19T20:46:29.516Z,15.04
2023-05-19T20:48:56.237Z,15.01
2023-05-19T20:51:25.096Z,15.01
2023-05-19T20:53:51.670Z,14.96
2023-05-19T20:56:19.704Z,14.97
2023-05-19T20:58:46.250Z,14.94
2023-05-19T21:01:12.775Z,14.92
2023-05-19T21:03:39.332Z,14.89
2023-05-19T21:06:05.816Z,14.84
2023-05-19T21:08:32.233Z,14.81
2023-05-19T21:10:59.306Z,14.78
2023-05-19T21:13:25.888Z,14.72
2023-05-19T21:15:52.394Z,14.65
2023-05-19T21:18:18.833Z,14.65
2023-05-19T21:20:45.338Z,14.65
2023-05-19T21:23:12.209Z,14.58
2023-05-19T21:25:39.652Z,14.58
2023-05-19T21:28:06.347Z,14.56
2023-05-19T21:30:33.029Z,14.54
2023-05-19T21:32:59.731Z,14.50
2023-05-19T21:35:26.271Z,14.43
2023-05-19T21:37:52.761Z,14.39
2023-05-19T21:40:19.283Z,14.38
2023-05-19T21:42:46.078Z,14.34
2023-05-19T21:45:12.839Z,14.34
2023-05-19T21:47:39.506Z,14.33
2023-05-19T21:50:06.751Z,14.29
2023-05-19T21:52:33.287Z,14.28
2023-05-19T21:54:59.791Z,14.23
2023-05-19T21:57:26.292Z,14.18
2023-05-19T21:59:52.743Z,14.13
2023-05-19T22:02:19.274Z,14.08
2023-05-19T22:04:45.951Z,14.06
2023-05-19T22:07:12.620Z,13.96
2023-05-19T22:09:39.188Z,13.97
2023-05-19T22:12:06.399Z,13.94
2023-05-19T22:14:32.889Z,13.94
2023-05-19T22:16:59.422Z,13.90
2023-05-19T22:19:26.232Z,13.86
2023-05-19T22:22:01.815Z,13.85
2023-05-19T22:24:36.627Z,13.82
2023-05-19T22:27:03.803Z,13.79
2023-05-19T22:29:30.284Z,13.75
2023-05-19T22:31:56.733Z,13.71
2023-05-19T22:34:23.256Z,13.71
2023-05-19T22:36:50.046Z,13.68
2023-05-19T22:39:16.502Z,13.63
2023-05-19T22:41:43.092Z,13.58
2023-05-19T22:44:11.334Z,13.56
2023-05-19T22:46:37.939Z,13.52
2023-05-19T22:49:04.410Z,13.54
2023-05-19T22:51:31.372Z,13.50
2023-05-19T22:53:57.816Z,13.45
2023-05-19T22:56:24.460Z,13.39
2023-05-19T22:58:51.036Z,13.36
2023-05-19T23:01:17.546Z,13.29
2023-05-19T23:03:44.621Z,13.29
2023-05-19T23:06:11.243Z,13.29
2023-05-19T23:08:37.888Z,13.25
2023-05-19T23:11:04.495Z,13.19
2023-05-19T23:13:33.769Z,13.17
2023-05-19T23:16:00.680Z,13.12
2023-05-19T23:18:27.144Z,13.08
2023-05-19T23:20:53.598Z,13.04
2023-05-19T23:23:20.046Z,13.02
2023-05-19T23:25:46.519Z,13.02
2023-05-19T23:28:13.010Z,12.97
2023-05-19T23:30:39.623Z,12.96
2023-05-19T23:33:06.253Z,12.94
2023-05-19T23:35:32.870Z,12.87
2023-05-19T23:37:59.434Z,12.81
2023-05-19T23:40:26.456Z,12.79
2023-05-19T23:42:52.936Z,12.76
2023-05-19T23:45:19.440Z,12.72
2023-05-19T23:47:45.989Z,12.68
2023-05-19T23:50:12.476Z,12.62
2023-05-19T23:52:39.016Z,12.58
2023-05-19T23:55:05.980Z,12.55
2023-05-19T23:57:32.419Z,12.56
2023-05-19T23:59:58.876Z,12.51
